Saint Charles, Michigan
Current Conditions -  °F | °C
As of 12:53 PM on Friday 24 Oct 2014 (Local Time) from KMBS Reporting Station
Overcast Overcast  
Wind Chill: 57°   Ceiling: 3400
Heat Index: 57°   Visibility: 9mi
Dew Point: 46°   Wind: 6mph
Humidity: 67%   Direction: 220°SW
Pressure: 30.04"   Gusts: NA
Location:  43.3°N, 84.14°W
Report Text: KMBS 241653Z 22005KT 9SM OVC034 14/08 A3004 RMK AO2 SLP176 T01390078
Loading
Personal Weather Stations






























Interactive Weather Map New forecast layout! Learn more

10-Day Weather Forecast

Advertisements
Track Severe Weather on mobile